Martin Challenger — WDB2346 — position and weather

sailwx.info

Track history (hours):
 
Tides and Currents Weather Stations Pressure Air Temp Water Temp Dewpoint Dewpoint Depression Visibility Wind Speed Wind Dir Waves Ship Positions

Martin Challenger

Owner: MARTIN OPERATING PARTNERSHIP LP, VIDOR, TX. More information available from US FCC via Universal Licensing System and Coast Guard Vessel Documentation Center.

Last reported at 2017-Sep-26 13:57 UTC. Time now 2017-Sep-26 16:43 UTC.
Position N 29°55' W 093°53'.

Length 20 m.

MMSI: 366874920.

Date/timePositionNaut miles runAvg speedWind from/ knotsBaromVisibWave heightAir tempDewpointWater temp
2017-Sep-26 13:57N 29°55' W 093°53'8 4.2
2017-Sep-26 12:05N 29°60' W 093°46'0 3.5
2017-Sep-26 12:00N 30°00' W 093°46'4 4.2
2017-Sep-26 11:10N 30°03' W 093°44'1 4.7
2017-Sep-26 11:00N 30°03' W 093°43'2 4.3
2017-Sep-26 10:29N 30°04' W 093°40'2 4.1
2017-Sep-26 10:00N 30°04' W 093°38'2 4.1
2017-Sep-26 09:30N 30°04' W 093°36'2 4.2
2017-Sep-26 09:00N 30°04' W 093°33'2 4.3
2017-Sep-26 08:30N 30°04' W 093°31'2 4.3
2017-Sep-26 08:00N 30°04' W 093°28'2 4.1
2017-Sep-26 07:30N 30°04' W 093°26'2 4.3
2017-Sep-26 07:00N 30°04' W 093°24'2 3.8
2017-Sep-26 06:30N 30°04' W 093°21'2 4.2
2017-Sep-26 06:00N 30°05' W 093°20'2 3.6
2017-Sep-26 05:30N 30°05' W 093°18'1 1.6
2017-Sep-26 05:00N 30°05' W 093°17'1 1.1
2017-Sep-26 04:30N 30°04' W 093°16'0 0.0
2017-Sep-26 04:00N 30°04' W 093°16'1 1.5
2017-Sep-26 03:30N 30°04' W 093°16'2 3.8
2017-Sep-26 03:00N 30°02' W 093°15'2 3.9
2017-Sep-26 02:30N 30°00' W 093°14'2 4.4
2017-Sep-26 02:00N 29°59' W 093°12'3 5.0
2017-Sep-26 01:30N 29°57' W 093°10'2 4.4
2017-Sep-26 01:00N 29°56' W 093°08'2 4.6
2017-Sep-26 00:30N 29°56' W 093°05'38 4.6
2017-Sep-25 16:09N 29°51' W 092°22'1 4.6
2017-Sep-25 15:58N 29°51' W 092°21'2 4.8
2017-Sep-25 15:30N 29°50' W 092°18'2 4.7
2017-Sep-25 15:00N 29°49' W 092°16'1 3.0
2017-Sep-25 14:30N 29°48' W 092°15'2 3.3
2017-Sep-25 14:00N 29°47' W 092°13'1 1.1
2017-Sep-25 13:30N 29°47' W 092°12'1 1.7
2017-Sep-25 13:00N 29°47' W 092°11'0 0.1
2017-Sep-25 12:30N 29°47' W 092°11'0 0.1
2017-Sep-25 12:00N 29°47' W 092°11'0 0.2
2017-Sep-25 11:30N 29°47' W 092°11'0 0.0
2017-Sep-25 11:00N 29°47' W 092°11'1 1.2
2017-Sep-25 10:30N 29°47' W 092°11'0 0.4
2017-Sep-25 10:00N 29°46' W 092°10'0 0.0
2017-Sep-25 09:30N 29°46' W 092°10'1 1.5
2017-Sep-25 09:00N 29°47' W 092°10'1 1.6
2017-Sep-25 08:30N 29°47' W 092°09'2 4.3
2017-Sep-25 08:00N 29°48' W 092°06'2 4.9
2017-Sep-25 07:30N 29°49' W 092°04'3 5.1
2017-Sep-25 06:58N 29°49' W 092°01'56 4.1
2017-Sep-24 17:16N 29°36' W 090°58'2 5.5
2017-Sep-24 16:57N 29°34' W 090°57'3 5.7
2017-Sep-24 16:30N 29°33' W 090°54'3 5.6
2017-Sep-24 15:59N 29°32' W 090°51'3 5.9
2017-Sep-24 15:30N 29°32' W 090°48'3 5.1
2017-Sep-24 15:00N 29°33' W 090°45'2 3.9
2017-Sep-24 14:30N 29°34' W 090°43'2 3.6
2017-Sep-24 14:00N 29°36' W 090°43'1 2.6
2017-Sep-24 13:30N 29°37' W 090°41'2 4.3
2017-Sep-24 13:00N 29°36' W 090°39'2 4.8
2017-Sep-24 12:30N 29°35' W 090°37'2 4.6
2017-Sep-24 12:00N 29°34' W 090°34'2 4.8
2017-Sep-24 11:30N 29°34' W 090°31'8 4.2
2017-Sep-24 09:38N 29°35' W 090°23'1 3.9
2017-Sep-24 09:30N 29°35' W 090°22'3 5.1
2017-Sep-24 09:00N 29°38' W 090°21'  
Track history (hours):
 
Tides and Currents Weather Stations Pressure Air Temp Water Temp Dewpoint Dewpoint Depression Visibility Wind Speed Wind Dir Waves Ship Positions

Martin Challenger

Owner: MARTIN OPERATING PARTNERSHIP LP, VIDOR, TX. More information available from US FCC via Universal Licensing System and Coast Guard Vessel Documentation Center.

Last reported at 2017-Sep-26 13:57 UTC. Time now 2017-Sep-26 16:43 UTC.
Position N 29°55' W 093°53'.

Length 20 m.

MMSI: 366874920.

Date/timePositionNaut miles runAvg speedWind from/ knotsBaromVisibWave heightAir tempDewpointWater temp
2017-Sep-26 13:57N 29°55' W 093°53'8 4.2
2017-Sep-26 12:05N 29°60' W 093°46'0 3.5
2017-Sep-26 12:00N 30°00' W 093°46'4 4.2
2017-Sep-26 11:10N 30°03' W 093°44'1 4.7
2017-Sep-26 11:00N 30°03' W 093°43'2 4.3
2017-Sep-26 10:29N 30°04' W 093°40'2 4.1
2017-Sep-26 10:00N 30°04' W 093°38'2 4.1
2017-Sep-26 09:30N 30°04' W 093°36'2 4.2
2017-Sep-26 09:00N 30°04' W 093°33'2 4.3
2017-Sep-26 08:30N 30°04' W 093°31'2 4.3
2017-Sep-26 08:00N 30°04' W 093°28'2 4.1
2017-Sep-26 07:30N 30°04' W 093°26'2 4.3
2017-Sep-26 07:00N 30°04' W 093°24'2 3.8
2017-Sep-26 06:30N 30°04' W 093°21'2 4.2
2017-Sep-26 06:00N 30°05' W 093°20'2 3.6
2017-Sep-26 05:30N 30°05' W 093°18'1 1.6
2017-Sep-26 05:00N 30°05' W 093°17'1 1.1
2017-Sep-26 04:30N 30°04' W 093°16'0 0.0
2017-Sep-26 04:00N 30°04' W 093°16'1 1.5
2017-Sep-26 03:30N 30°04' W 093°16'2 3.8
2017-Sep-26 03:00N 30°02' W 093°15'2 3.9
2017-Sep-26 02:30N 30°00' W 093°14'2 4.4
2017-Sep-26 02:00N 29°59' W 093°12'3 5.0
2017-Sep-26 01:30N 29°57' W 093°10'2 4.4
2017-Sep-26 01:00N 29°56' W 093°08'2 4.6
2017-Sep-26 00:30N 29°56' W 093°05'38 4.6
2017-Sep-25 16:09N 29°51' W 092°22'1 4.6
2017-Sep-25 15:58N 29°51' W 092°21'2 4.8
2017-Sep-25 15:30N 29°50' W 092°18'2 4.7
2017-Sep-25 15:00N 29°49' W 092°16'1 3.0
2017-Sep-25 14:30N 29°48' W 092°15'2 3.3
2017-Sep-25 14:00N 29°47' W 092°13'1 1.1
2017-Sep-25 13:30N 29°47' W 092°12'1 1.7
2017-Sep-25 13:00N 29°47' W 092°11'0 0.1
2017-Sep-25 12:30N 29°47' W 092°11'0 0.1
2017-Sep-25 12:00N 29°47' W 092°11'0 0.2
2017-Sep-25 11:30N 29°47' W 092°11'0 0.0
2017-Sep-25 11:00N 29°47' W 092°11'1 1.2
2017-Sep-25 10:30N 29°47' W 092°11'0 0.4
2017-Sep-25 10:00N 29°46' W 092°10'0 0.0
2017-Sep-25 09:30N 29°46' W 092°10'1 1.5
2017-Sep-25 09:00N 29°47' W 092°10'1 1.6
2017-Sep-25 08:30N 29°47' W 092°09'2 4.3
2017-Sep-25 08:00N 29°48' W 092°06'2 4.9
2017-Sep-25 07:30N 29°49' W 092°04'3 5.1
2017-Sep-25 06:58N 29°49' W 092°01'56 4.1
2017-Sep-24 17:16N 29°36' W 090°58'2 5.5
2017-Sep-24 16:57N 29°34' W 090°57'3 5.7
2017-Sep-24 16:30N 29°33' W 090°54'3 5.6
2017-Sep-24 15:59N 29°32' W 090°51'3 5.9
2017-Sep-24 15:30N 29°32' W 090°48'3 5.1
2017-Sep-24 15:00N 29°33' W 090°45'2 3.9
2017-Sep-24 14:30N 29°34' W 090°43'2 3.6
2017-Sep-24 14:00N 29°36' W 090°43'1 2.6
2017-Sep-24 13:30N 29°37' W 090°41'2 4.3
2017-Sep-24 13:00N 29°36' W 090°39'2 4.8
2017-Sep-24 12:30N 29°35' W 090°37'2 4.6
2017-Sep-24 12:00N 29°34' W 090°34'2 4.8
2017-Sep-24 11:30N 29°34' W 090°31'8 4.2
2017-Sep-24 09:38N 29°35' W 090°23'1 3.9
2017-Sep-24 09:30N 29°35' W 090°22'3 5.1
2017-Sep-24 09:00N 29°38' W 090°21'  

Dump ship's entire track history